sensor_id;sensor_type;location;lat;lon;timestamp;P1;durP1;ratioP1;P2;durP2;ratioP2
9783;SDS011;4931;44.874;-1.092;2023-02-11T00:03:59;78.95;;;34.63;;
9783;SDS011;4931;44.874;-1.092;2023-02-11T00:06:26;77.13;;;32.28;;
9783;SDS011;4931;44.874;-1.092;2023-02-11T00:08:53;74.53;;;32.17;;
9783;SDS011;4931;44.874;-1.092;2023-02-11T00:11:20;125.57;;;47.08;;
9783;SDS011;4931;44.874;-1.092;2023-02-11T00:13:46;260.60;;;78.82;;
9783;SDS011;4931;44.874;-1.092;2023-02-11T00:16:13;139.18;;;48.08;;
9783;SDS011;4931;44.874;-1.092;2023-02-11T00:18:40;141.02;;;50.72;;
9783;SDS011;4931;44.874;-1.092;2023-02-11T00:21:09;111.57;;;41.45;;
9783;SDS011;4931;44.874;-1.092;2023-02-11T00:23:37;105.57;;;38.55;;
9783;SDS011;4931;44.874;-1.092;2023-02-11T00:26:03;89.10;;;33.72;;
9783;SDS011;4931;44.874;-1.092;2023-02-11T00:28:35;86.60;;;32.40;;
9783;SDS011;4931;44.874;-1.092;2023-02-11T00:31:00;79.90;;;31.77;;
9783;SDS011;4931;44.874;-1.092;2023-02-11T00:33:26;76.72;;;32.45;;
9783;SDS011;4931;44.874;-1.092;2023-02-11T00:35:52;80.22;;;32.47;;
9783;SDS011;4931;44.874;-1.092;2023-02-11T00:38:17;82.63;;;32.13;;
9783;SDS011;4931;44.874;-1.092;2023-02-11T00:40:42;75.22;;;31.00;;
9783;SDS011;4931;44.874;-1.092;2023-02-11T00:43:08;75.90;;;32.10;;
9783;SDS011;4931;44.874;-1.092;2023-02-11T00:45:33;83.60;;;35.55;;
9783;SDS011;4931;44.874;-1.092;2023-02-11T00:47:59;88.88;;;39.55;;
9783;SDS011;4931;44.874;-1.092;2023-02-11T00:50:24;73.22;;;33.17;;
9783;SDS011;4931;44.874;-1.092;2023-02-11T00:52:50;76.88;;;32.13;;
9783;SDS011;4931;44.874;-1.092;2023-02-11T00:55:15;69.75;;;32.20;;
9783;SDS011;4931;44.874;-1.092;2023-02-11T00:57:41;62.95;;;25.83;;
9783;SDS011;4931;44.874;-1.092;2023-02-11T01:00:08;67.63;;;27.70;;
9783;SDS011;4931;44.874;-1.092;2023-02-11T01:02:35;63.00;;;26.85;;
9783;SDS011;4931;44.874;-1.092;2023-02-11T01:05:00;62.33;;;26.45;;
9783;SDS011;4931;44.874;-1.092;2023-02-11T01:07:26;63.70;;;27.55;;
9783;SDS011;4931;44.874;-1.092;2023-02-11T01:09:52;62.20;;;26.27;;
9783;SDS011;4931;44.874;-1.092;2023-02-11T01:12:18;53.15;;;22.90;;
9783;SDS011;4931;44.874;-1.092;2023-02-11T01:14:43;53.97;;;25.02;;
9783;SDS011;4931;44.874;-1.092;2023-02-11T01:17:09;52.35;;;23.67;;
9783;SDS011;4931;44.874;-1.092;2023-02-11T01:19:36;56.40;;;28.35;;
9783;SDS011;4931;44.874;-1.092;2023-02-11T01:22:02;51.22;;;22.20;;
9783;SDS011;4931;44.874;-1.092;2023-02-11T01:24:28;49.70;;;23.13;;
9783;SDS011;4931;44.874;-1.092;2023-02-11T01:26:53;43.88;;;19.92;;
9783;SDS011;4931;44.874;-1.092;2023-02-11T01:29:19;39.13;;;18.88;;
9783;SDS011;4931;44.874;-1.092;2023-02-11T01:31:44;40.13;;;17.55;;
9783;SDS011;4931;44.874;-1.092;2023-02-11T01:34:10;40.08;;;16.95;;
9783;SDS011;4931;44.874;-1.092;2023-02-11T01:36:36;36.97;;;16.73;;
9783;SDS011;4931;44.874;-1.092;2023-02-11T01:39:01;39.95;;;16.27;;
9783;SDS011;4931;44.874;-1.092;2023-02-11T01:41:27;47.55;;;18.08;;
9783;SDS011;4931;44.874;-1.092;2023-02-11T01:43:52;37.80;;;17.55;;
9783;SDS011;4931;44.874;-1.092;2023-02-11T01:54:30;31.23;;;14.18;;
9783;SDS011;4931;44.874;-1.092;2023-02-11T01:57:18;33.85;;;15.02;;
9783;SDS011;4931;44.874;-1.092;2023-02-11T02:02:12;31.75;;;14.68;;
9783;SDS011;4931;44.874;-1.092;2023-02-11T02:07:46;34.08;;;15.35;;
9783;SDS011;4931;44.874;-1.092;2023-02-11T02:10:20;30.00;;;14.10;;
9783;SDS011;4931;44.874;-1.092;2023-02-11T02:12:48;29.92;;;15.18;;
9783;SDS011;4931;44.874;-1.092;2023-02-11T02:17:53;36.72;;;14.82;;
9783;SDS011;4931;44.874;-1.092;2023-02-11T02:22:58;39.17;;;16.23;;
9783;SDS011;4931;44.874;-1.092;2023-02-11T02:28:45;38.90;;;15.85;;
9783;SDS011;4931;44.874;-1.092;2023-02-11T02:33:54;50.80;;;19.85;;
9783;SDS011;4931;44.874;-1.092;2023-02-11T02:36:35;41.80;;;16.80;;
9783;SDS011;4931;44.874;-1.092;2023-02-11T02:39:11;49.90;;;20.85;;
9783;SDS011;4931;44.874;-1.092;2023-02-11T02:41:42;45.22;;;18.67;;
9783;SDS011;4931;44.874;-1.092;2023-02-11T02:44:10;33.72;;;15.38;;
9783;SDS011;4931;44.874;-1.092;2023-02-11T02:46:36;58.67;;;21.77;;
9783;SDS011;4931;44.874;-1.092;2023-02-11T02:49:02;125.30;;;41.88;;
9783;SDS011;4931;44.874;-1.092;2023-02-11T02:51:35;112.20;;;36.13;;
9783;SDS011;4931;44.874;-1.092;2023-02-11T03:02:07;113.85;;;35.40;;
9783;SDS011;4931;44.874;-1.092;2023-02-11T03:09:34;71.57;;;23.98;;
9783;SDS011;4931;44.874;-1.092;2023-02-11T03:12:15;59.53;;;21.58;;
9783;SDS011;4931;44.874;-1.092;2023-02-11T03:14:42;59.20;;;21.50;;
9783;SDS011;4931;44.874;-1.092;2023-02-11T03:17:09;47.92;;;18.75;;
9783;SDS011;4931;44.874;-1.092;2023-02-11T03:19:35;51.92;;;19.38;;
9783;SDS011;4931;44.874;-1.092;2023-02-11T03:22:05;48.63;;;20.95;;
9783;SDS011;4931;44.874;-1.092;2023-02-11T03:24:36;53.28;;;21.48;;
9783;SDS011;4931;44.874;-1.092;2023-02-11T03:29:54;48.22;;;21.90;;
9783;SDS011;4931;44.874;-1.092;2023-02-11T03:32:36;48.72;;;20.20;;
9783;SDS011;4931;44.874;-1.092;2023-02-11T03:35:16;49.15;;;19.77;;
9783;SDS011;4931;44.874;-1.092;2023-02-11T03:37:54;49.28;;;20.42;;
9783;SDS011;4931;44.874;-1.092;2023-02-11T03:40:25;56.13;;;21.38;;
9783;SDS011;4931;44.874;-1.092;2023-02-11T03:43:05;55.08;;;22.08;;
9783;SDS011;4931;44.874;-1.092;2023-02-11T03:45:41;55.20;;;20.88;;
9783;SDS011;4931;44.874;-1.092;2023-02-11T03:48:25;60.33;;;23.00;;
9783;SDS011;4931;44.874;-1.092;2023-02-11T03:50:55;69.72;;;24.25;;
9783;SDS011;4931;44.874;-1.092;2023-02-11T03:53:23;65.32;;;25.73;;
9783;SDS011;4931;44.874;-1.092;2023-02-11T03:55:49;68.00;;;24.65;;
9783;SDS011;4931;44.874;-1.092;2023-02-11T03:58:18;57.67;;;24.27;;
9783;SDS011;4931;44.874;-1.092;2023-02-11T04:00:44;55.55;;;24.70;;
9783;SDS011;4931;44.874;-1.092;2023-02-11T04:03:10;63.40;;;27.52;;
9783;SDS011;4931;44.874;-1.092;2023-02-11T04:05:36;55.13;;;23.50;;
9783;SDS011;4931;44.874;-1.092;2023-02-11T04:08:02;72.38;;;29.48;;
9783;SDS011;4931;44.874;-1.092;2023-02-11T04:10:28;122.68;;;46.10;;
9783;SDS011;4931;44.874;-1.092;2023-02-11T04:12:54;119.13;;;44.55;;
9783;SDS011;4931;44.874;-1.092;2023-02-11T04:15:19;83.78;;;31.42;;
9783;SDS011;4931;44.874;-1.092;2023-02-11T04:17:45;44.90;;;20.48;;
9783;SDS011;4931;44.874;-1.092;2023-02-11T04:20:10;42.65;;;19.15;;
9783;SDS011;4931;44.874;-1.092;2023-02-11T04:22:36;41.03;;;17.35;;
9783;SDS011;4931;44.874;-1.092;2023-02-11T04:25:03;113.72;;;39.20;;
9783;SDS011;4931;44.874;-1.092;2023-02-11T04:27:29;91.15;;;34.05;;
9783;SDS011;4931;44.874;-1.092;2023-02-11T04:29:55;163.02;;;51.22;;
9783;SDS011;4931;44.874;-1.092;2023-02-11T04:32:20;107.43;;;38.85;;
9783;SDS011;4931;44.874;-1.092;2023-02-11T04:34:46;65.47;;;27.40;;
9783;SDS011;4931;44.874;-1.092;2023-02-11T04:37:12;101.97;;;37.03;;
9783;SDS011;4931;44.874;-1.092;2023-02-11T04:39:38;93.15;;;34.60;;
9783;SDS011;4931;44.874;-1.092;2023-02-11T04:42:04;70.38;;;27.88;;
9783;SDS011;4931;44.874;-1.092;2023-02-11T04:44:29;51.05;;;22.83;;
9783;SDS011;4931;44.874;-1.092;2023-02-11T04:46:55;50.35;;;20.48;;
9783;SDS011;4931;44.874;-1.092;2023-02-11T04:49:21;49.53;;;20.60;;
9783;SDS011;4931;44.874;-1.092;2023-02-11T04:51:46;46.65;;;20.20;;
9783;SDS011;4931;44.874;-1.092;2023-02-11T04:54:11;41.08;;;19.25;;
9783;SDS011;4931;44.874;-1.092;2023-02-11T04:56:37;43.45;;;19.17;;
9783;SDS011;4931;44.874;-1.092;2023-02-11T04:59:03;57.20;;;24.63;;
9783;SDS011;4931;44.874;-1.092;2023-02-11T05:01:30;54.10;;;23.75;;
9783;SDS011;4931;44.874;-1.092;2023-02-11T05:03:55;54.30;;;25.23;;
9783;SDS011;4931;44.874;-1.092;2023-02-11T05:06:21;37.40;;;17.90;;
9783;SDS011;4931;44.874;-1.092;2023-02-11T05:08:46;35.53;;;15.85;;
9783;SDS011;4931;44.874;-1.092;2023-02-11T05:11:16;37.15;;;17.30;;
9783;SDS011;4931;44.874;-1.092;2023-02-11T05:13:43;31.45;;;14.70;;
9783;SDS011;4931;44.874;-1.092;2023-02-11T05:16:09;38.42;;;15.50;;
9783;SDS011;4931;44.874;-1.092;2023-02-11T05:18:39;36.13;;;15.50;;
9783;SDS011;4931;44.874;-1.092;2023-02-11T05:21:06;34.57;;;16.43;;
9783;SDS011;4931;44.874;-1.092;2023-02-11T05:23:33;35.65;;;16.65;;
9783;SDS011;4931;44.874;-1.092;2023-02-11T05:25:58;32.97;;;15.30;;
9783;SDS011;4931;44.874;-1.092;2023-02-11T05:28:24;36.78;;;15.77;;
9783;SDS011;4931;44.874;-1.092;2023-02-11T05:30:49;31.75;;;15.05;;
9783;SDS011;4931;44.874;-1.092;2023-02-11T05:33:15;28.73;;;14.38;;
9783;SDS011;4931;44.874;-1.092;2023-02-11T05:35:40;32.65;;;15.52;;
9783;SDS011;4931;44.874;-1.092;2023-02-11T05:38:06;36.05;;;16.42;;
9783;SDS011;4931;44.874;-1.092;2023-02-11T05:40:31;38.95;;;18.50;;
9783;SDS011;4931;44.874;-1.092;2023-02-11T05:42:57;45.85;;;19.67;;
9783;SDS011;4931;44.874;-1.092;2023-02-11T05:45:22;58.47;;;22.20;;
9783;SDS011;4931;44.874;-1.092;2023-02-11T05:47:48;37.83;;;18.90;;
9783;SDS011;4931;44.874;-1.092;2023-02-11T05:50:13;42.63;;;17.50;;
9783;SDS011;4931;44.874;-1.092;2023-02-11T05:52:39;35.92;;;16.55;;
9783;SDS011;4931;44.874;-1.092;2023-02-11T05:55:04;38.17;;;18.55;;
9783;SDS011;4931;44.874;-1.092;2023-02-11T05:57:30;34.70;;;16.92;;
9783;SDS011;4931;44.874;-1.092;2023-02-11T05:59:55;34.55;;;16.13;;
9783;SDS011;4931;44.874;-1.092;2023-02-11T06:02:21;39.30;;;17.05;;
9783;SDS011;4931;44.874;-1.092;2023-02-11T06:04:46;32.50;;;15.82;;
9783;SDS011;4931;44.874;-1.092;2023-02-11T06:07:12;34.97;;;15.57;;
9783;SDS011;4931;44.874;-1.092;2023-02-11T06:09:37;35.85;;;15.55;;
9783;SDS011;4931;44.874;-1.092;2023-02-11T06:12:03;37.22;;;15.85;;
9783;SDS011;4931;44.874;-1.092;2023-02-11T06:14:30;38.88;;;17.27;;
9783;SDS011;4931;44.874;-1.092;2023-02-11T06:16:59;34.42;;;16.38;;
9783;SDS011;4931;44.874;-1.092;2023-02-11T06:19:25;34.10;;;15.52;;
9783;SDS011;4931;44.874;-1.092;2023-02-11T06:21:51;33.75;;;16.15;;
9783;SDS011;4931;44.874;-1.092;2023-02-11T06:24:16;34.53;;;16.33;;
9783;SDS011;4931;44.874;-1.092;2023-02-11T06:26:41;34.08;;;15.45;;
9783;SDS011;4931;44.874;-1.092;2023-02-11T06:29:07;44.53;;;18.02;;
9783;SDS011;4931;44.874;-1.092;2023-02-11T06:31:32;37.15;;;16.17;;
9783;SDS011;4931;44.874;-1.092;2023-02-11T06:33:58;37.75;;;16.00;;
9783;SDS011;4931;44.874;-1.092;2023-02-11T06:36:24;34.38;;;15.48;;
9783;SDS011;4931;44.874;-1.092;2023-02-11T06:38:50;35.78;;;15.38;;
9783;SDS011;4931;44.874;-1.092;2023-02-11T06:41:16;29.15;;;14.80;;
9783;SDS011;4931;44.874;-1.092;2023-02-11T06:43:45;59.17;;;22.33;;
9783;SDS011;4931;44.874;-1.092;2023-02-11T06:46:11;72.20;;;24.50;;
9783;SDS011;4931;44.874;-1.092;2023-02-11T06:48:37;71.15;;;26.45;;
9783;SDS011;4931;44.874;-1.092;2023-02-11T06:51:03;81.47;;;29.15;;
9783;SDS011;4931;44.874;-1.092;2023-02-11T06:53:31;83.60;;;31.63;;
9783;SDS011;4931;44.874;-1.092;2023-02-11T06:56:06;58.70;;;26.58;;
9783;SDS011;4931;44.874;-1.092;2023-02-11T06:58:33;88.72;;;29.70;;
9783;SDS011;4931;44.874;-1.092;2023-02-11T07:01:02;67.32;;;25.70;;
9783;SDS011;4931;44.874;-1.092;2023-02-11T07:05:56;100.43;;;33.38;;
9783;SDS011;4931;44.874;-1.092;2023-02-11T07:08:21;101.72;;;36.45;;
9783;SDS011;4931;44.874;-1.092;2023-02-11T07:10:47;84.40;;;34.00;;
9783;SDS011;4931;44.874;-1.092;2023-02-11T07:13:12;78.60;;;32.28;;
9783;SDS011;4931;44.874;-1.092;2023-02-11T07:15:38;65.40;;;29.13;;
9783;SDS011;4931;44.874;-1.092;2023-02-11T07:18:03;69.40;;;34.25;;
9783;SDS011;4931;44.874;-1.092;2023-02-11T07:20:29;80.20;;;42.20;;
9783;SDS011;4931;44.874;-1.092;2023-02-11T07:22:54;69.68;;;36.30;;
9783;SDS011;4931;44.874;-1.092;2023-02-11T07:25:20;51.03;;;26.60;;
9783;SDS011;4931;44.874;-1.092;2023-02-11T07:27:45;49.08;;;22.50;;
9783;SDS011;4931;44.874;-1.092;2023-02-11T07:30:11;44.95;;;23.02;;
9783;SDS011;4931;44.874;-1.092;2023-02-11T07:32:37;65.53;;;30.85;;
9783;SDS011;4931;44.874;-1.092;2023-02-11T07:35:03;65.50;;;29.58;;
9783;SDS011;4931;44.874;-1.092;2023-02-11T07:37:28;52.65;;;25.77;;
9783;SDS011;4931;44.874;-1.092;2023-02-11T07:39:54;52.45;;;23.92;;
9783;SDS011;4931;44.874;-1.092;2023-02-11T07:42:19;48.15;;;24.25;;
9783;SDS011;4931;44.874;-1.092;2023-02-11T07:44:45;44.13;;;22.27;;
9783;SDS011;4931;44.874;-1.092;2023-02-11T07:47:10;59.83;;;26.10;;
9783;SDS011;4931;44.874;-1.092;2023-02-11T07:49:36;99.88;;;41.60;;
9783;SDS011;4931;44.874;-1.092;2023-02-11T07:52:01;144.77;;;56.30;;
9783;SDS011;4931;44.874;-1.092;2023-02-11T07:54:27;314.67;;;116.55;;
9783;SDS011;4931;44.874;-1.092;2023-02-11T07:56:52;204.25;;;73.25;;
9783;SDS011;4931;44.874;-1.092;2023-02-11T07:59:18;89.35;;;37.60;;
9783;SDS011;4931;44.874;-1.092;2023-02-11T08:01:43;100.55;;;40.15;;
9783;SDS011;4931;44.874;-1.092;2023-02-11T08:04:09;83.22;;;34.75;;
9783;SDS011;4931;44.874;-1.092;2023-02-11T08:06:39;67.93;;;29.45;;
9783;SDS011;4931;44.874;-1.092;2023-02-11T08:09:06;101.72;;;46.10;;
9783;SDS011;4931;44.874;-1.092;2023-02-11T08:11:33;111.35;;;46.90;;
9783;SDS011;4931;44.874;-1.092;2023-02-11T08:13:59;91.63;;;42.10;;
9783;SDS011;4931;44.874;-1.092;2023-02-11T08:16:26;71.70;;;36.13;;
9783;SDS011;4931;44.874;-1.092;2023-02-11T08:18:54;88.22;;;41.40;;
9783;SDS011;4931;44.874;-1.092;2023-02-11T08:21:21;77.72;;;36.40;;
9783;SDS011;4931;44.874;-1.092;2023-02-11T08:23:48;73.43;;;36.28;;
9783;SDS011;4931;44.874;-1.092;2023-02-11T08:26:15;89.78;;;44.70;;
9783;SDS011;4931;44.874;-1.092;2023-02-11T08:28:44;75.00;;;37.60;;
9783;SDS011;4931;44.874;-1.092;2023-02-11T08:31:11;93.45;;;44.92;;
9783;SDS011;4931;44.874;-1.092;2023-02-11T08:33:41;83.50;;;39.15;;
9783;SDS011;4931;44.874;-1.092;2023-02-11T08:36:08;76.90;;;38.83;;
9783;SDS011;4931;44.874;-1.092;2023-02-11T08:38:34;88.88;;;46.38;;
9783;SDS011;4931;44.874;-1.092;2023-02-11T08:41:00;99.25;;;47.60;;
9783;SDS011;4931;44.874;-1.092;2023-02-11T08:43:25;88.28;;;41.60;;
9783;SDS011;4931;44.874;-1.092;2023-02-11T08:45:51;90.18;;;41.40;;
9783;SDS011;4931;44.874;-1.092;2023-02-11T08:48:16;91.53;;;39.85;;
9783;SDS011;4931;44.874;-1.092;2023-02-11T08:50:42;82.20;;;38.88;;
9783;SDS011;4931;44.874;-1.092;2023-02-11T08:53:07;86.05;;;39.15;;
9783;SDS011;4931;44.874;-1.092;2023-02-11T08:55:33;83.47;;;36.97;;
9783;SDS011;4931;44.874;-1.092;2023-02-11T08:57:59;75.53;;;33.65;;
9783;SDS011;4931;44.874;-1.092;2023-02-11T09:00:33;67.15;;;32.45;;
9783;SDS011;4931;44.874;-1.092;2023-02-11T09:02:59;67.68;;;34.38;;
9783;SDS011;4931;44.874;-1.092;2023-02-11T09:05:25;79.53;;;39.95;;
9783;SDS011;4931;44.874;-1.092;2023-02-11T09:07:51;74.47;;;38.10;;
9783;SDS011;4931;44.874;-1.092;2023-02-11T09:10:20;71.63;;;36.97;;
9783;SDS011;4931;44.874;-1.092;2023-02-11T09:13:12;62.20;;;32.22;;
9783;SDS011;4931;44.874;-1.092;2023-02-11T09:15:44;63.63;;;29.73;;
9783;SDS011;4931;44.874;-1.092;2023-02-11T09:18:25;59.90;;;28.77;;
9783;SDS011;4931;44.874;-1.092;2023-02-11T09:21:03;53.75;;;27.88;;
9783;SDS011;4931;44.874;-1.092;2023-02-11T09:23:55;58.35;;;28.88;;
9783;SDS011;4931;44.874;-1.092;2023-02-11T09:26:43;58.75;;;29.48;;
9783;SDS011;4931;44.874;-1.092;2023-02-11T09:29:59;62.13;;;31.13;;
9783;SDS011;4931;44.874;-1.092;2023-02-11T09:35:00;57.63;;;26.30;;
9783;SDS011;4931;44.874;-1.092;2023-02-11T09:37:29;53.08;;;25.25;;
9783;SDS011;4931;44.874;-1.092;2023-02-11T09:39:54;56.65;;;27.83;;
9783;SDS011;4931;44.874;-1.092;2023-02-11T09:45:35;46.03;;;22.98;;
9783;SDS011;4931;44.874;-1.092;2023-02-11T09:48:17;45.65;;;23.17;;
9783;SDS011;4931;44.874;-1.092;2023-02-11T09:50:47;51.00;;;22.90;;
9783;SDS011;4931;44.874;-1.092;2023-02-11T09:53:41;44.50;;;22.73;;
9783;SDS011;4931;44.874;-1.092;2023-02-11T09:56:12;40.92;;;22.63;;
9783;SDS011;4931;44.874;-1.092;2023-02-11T09:58:42;43.28;;;21.35;;
9783;SDS011;4931;44.874;-1.092;2023-02-11T10:22:53;33.08;;;18.42;;
9783;SDS011;4931;44.874;-1.092;2023-02-11T10:25:23;36.78;;;20.45;;
9783;SDS011;4931;44.874;-1.092;2023-02-11T10:27:51;31.48;;;17.38;;
9783;SDS011;4931;44.874;-1.092;2023-02-11T10:30:23;27.67;;;16.85;;
9783;SDS011;4931;44.874;-1.092;2023-02-11T10:32:51;34.35;;;18.27;;
9783;SDS011;4931;44.874;-1.092;2023-02-11T10:35:23;39.78;;;20.42;;
9783;SDS011;4931;44.874;-1.092;2023-02-11T10:37:51;33.63;;;18.83;;
9783;SDS011;4931;44.874;-1.092;2023-02-11T10:40:20;35.15;;;16.45;;
9783;SDS011;4931;44.874;-1.092;2023-02-11T10:42:48;27.65;;;15.88;;
9783;SDS011;4931;44.874;-1.092;2023-02-11T10:53:37;33.17;;;22.10;;
9783;SDS011;4931;44.874;-1.092;2023-02-11T10:56:03;28.92;;;14.35;;
9783;SDS011;4931;44.874;-1.092;2023-02-11T10:58:31;21.55;;;12.68;;
9783;SDS011;4931;44.874;-1.092;2023-02-11T11:01:04;26.27;;;15.48;;
9783;SDS011;4931;44.874;-1.092;2023-02-11T11:03:33;25.10;;;13.80;;
9783;SDS011;4931;44.874;-1.092;2023-02-11T11:06:04;24.90;;;13.65;;
9783;SDS011;4931;44.874;-1.092;2023-02-11T11:08:48;24.52;;;12.80;;
9783;SDS011;4931;44.874;-1.092;2023-02-11T11:11:19;21.55;;;11.68;;
9783;SDS011;4931;44.874;-1.092;2023-02-11T11:16:20;19.10;;;11.73;;
9783;SDS011;4931;44.874;-1.092;2023-02-11T11:21:39;23.98;;;14.98;;
9783;SDS011;4931;44.874;-1.092;2023-02-11T11:24:05;17.40;;;10.07;;
9783;SDS011;4931;44.874;-1.092;2023-02-11T11:27:00;20.35;;;11.32;;
9783;SDS011;4931;44.874;-1.092;2023-02-11T11:29:32;19.35;;;10.20;;
9783;SDS011;4931;44.874;-1.092;2023-02-11T11:32:02;18.48;;;10.02;;
9783;SDS011;4931;44.874;-1.092;2023-02-11T11:34:53;18.48;;;10.23;;
9783;SDS011;4931;44.874;-1.092;2023-02-11T11:40:16;16.90;;;9.93;;
9783;SDS011;4931;44.874;-1.092;2023-02-11T11:43:00;14.40;;;9.25;;
9783;SDS011;4931;44.874;-1.092;2023-02-11T11:45:28;16.75;;;8.98;;
9783;SDS011;4931;44.874;-1.092;2023-02-11T11:48:02;19.88;;;9.43;;
9783;SDS011;4931;44.874;-1.092;2023-02-11T11:56:05;17.40;;;9.52;;
9783;SDS011;4931;44.874;-1.092;2023-02-11T11:58:37;16.90;;;10.00;;
9783;SDS011;4931;44.874;-1.092;2023-02-11T12:06:36;16.13;;;10.02;;
9783;SDS011;4931;44.874;-1.092;2023-02-11T12:21:07;19.33;;;11.30;;
9783;SDS011;4931;44.874;-1.092;2023-02-11T12:26:19;17.02;;;10.63;;
9783;SDS011;4931;44.874;-1.092;2023-02-11T12:50:39;18.42;;;11.05;;
9783;SDS011;4931;44.874;-1.092;2023-02-11T12:56:05;21.15;;;11.73;;
9783;SDS011;4931;44.874;-1.092;2023-02-11T12:59:09;16.05;;;9.60;;
9783;SDS011;4931;44.874;-1.092;2023-02-11T13:01:42;20.02;;;9.73;;
9783;SDS011;4931;44.874;-1.092;2023-02-11T13:04:14;14.93;;;8.98;;
9783;SDS011;4931;44.874;-1.092;2023-02-11T13:06:56;17.13;;;9.63;;
9783;SDS011;4931;44.874;-1.092;2023-02-11T13:09:37;18.08;;;10.13;;
9783;SDS011;4931;44.874;-1.092;2023-02-11T13:12:18;17.58;;;10.02;;
9783;SDS011;4931;44.874;-1.092;2023-02-11T13:15:09;20.58;;;11.23;;
9783;SDS011;4931;44.874;-1.092;2023-02-11T13:25:43;17.98;;;9.43;;
9783;SDS011;4931;44.874;-1.092;2023-02-11T13:28:22;15.07;;;9.15;;
9783;SDS011;4931;44.874;-1.092;2023-02-11T13:31:09;17.23;;;10.02;;
9783;SDS011;4931;44.874;-1.092;2023-02-11T13:33:37;18.77;;;10.23;;
9783;SDS011;4931;44.874;-1.092;2023-02-11T13:38:32;16.05;;;9.32;;
9783;SDS011;4931;44.874;-1.092;2023-02-11T13:41:02;18.88;;;9.93;;
9783;SDS011;4931;44.874;-1.092;2023-02-11T13:43:32;17.20;;;9.43;;
9783;SDS011;4931;44.874;-1.092;2023-02-11T13:46:00;16.35;;;9.68;;
9783;SDS011;4931;44.874;-1.092;2023-02-11T13:48:29;15.93;;;8.57;;
9783;SDS011;4931;44.874;-1.092;2023-02-11T13:51:02;17.75;;;9.13;;
9783;SDS011;4931;44.874;-1.092;2023-02-11T13:53:42;14.95;;;8.57;;
9783;SDS011;4931;44.874;-1.092;2023-02-11T13:58:54;15.40;;;8.48;;
9783;SDS011;4931;44.874;-1.092;2023-02-11T14:05:29;14.63;;;7.68;;
9783;SDS011;4931;44.874;-1.092;2023-02-11T14:13:21;14.73;;;7.72;;
9783;SDS011;4931;44.874;-1.092;2023-02-11T14:16:03;14.13;;;7.35;;
9783;SDS011;4931;44.874;-1.092;2023-02-11T14:23:37;13.20;;;7.03;;
9783;SDS011;4931;44.874;-1.092;2023-02-11T14:28:45;15.10;;;7.13;;
9783;SDS011;4931;44.874;-1.092;2023-02-11T14:31:25;12.30;;;7.38;;
9783;SDS011;4931;44.874;-1.092;2023-02-11T14:37:10;16.63;;;9.45;;
9783;SDS011;4931;44.874;-1.092;2023-02-11T14:42:18;15.45;;;7.68;;
9783;SDS011;4931;44.874;-1.092;2023-02-11T14:44:49;13.55;;;7.93;;
9783;SDS011;4931;44.874;-1.092;2023-02-11T14:47:17;13.25;;;8.23;;
9783;SDS011;4931;44.874;-1.092;2023-02-11T14:49:47;15.30;;;8.48;;
9783;SDS011;4931;44.874;-1.092;2023-02-11T14:52:26;14.20;;;8.18;;
9783;SDS011;4931;44.874;-1.092;2023-02-11T14:55:01;14.85;;;8.50;;
9783;SDS011;4931;44.874;-1.092;2023-02-11T14:58:03;16.98;;;8.98;;
9783;SDS011;4931;44.874;-1.092;2023-02-11T15:00:30;15.68;;;9.45;;
9783;SDS011;4931;44.874;-1.092;2023-02-11T15:02:55;19.30;;;9.80;;
9783;SDS011;4931;44.874;-1.092;2023-02-11T15:07:51;19.95;;;10.68;;
9783;SDS011;4931;44.874;-1.092;2023-02-11T15:10:26;18.45;;;10.73;;
9783;SDS011;4931;44.874;-1.092;2023-02-11T15:12:52;21.25;;;11.98;;
9783;SDS011;4931;44.874;-1.092;2023-02-11T15:15:18;23.73;;;12.15;;
9783;SDS011;4931;44.874;-1.092;2023-02-11T15:17:44;26.55;;;12.68;;
9783;SDS011;4931;44.874;-1.092;2023-02-11T15:20:21;22.20;;;12.07;;
9783;SDS011;4931;44.874;-1.092;2023-02-11T15:22:50;21.88;;;13.38;;
9783;SDS011;4931;44.874;-1.092;2023-02-11T15:25:20;26.67;;;13.60;;
9783;SDS011;4931;44.874;-1.092;2023-02-11T15:27:51;24.77;;;13.90;;
9783;SDS011;4931;44.874;-1.092;2023-02-11T15:32:45;26.38;;;15.05;;
9783;SDS011;4931;44.874;-1.092;2023-02-11T15:35:11;23.40;;;14.32;;
9783;SDS011;4931;44.874;-1.092;2023-02-11T15:37:38;25.38;;;14.27;;
9783;SDS011;4931;44.874;-1.092;2023-02-11T15:40:18;28.65;;;14.55;;
9783;SDS011;4931;44.874;-1.092;2023-02-11T15:42:56;27.00;;;14.65;;
9783;SDS011;4931;44.874;-1.092;2023-02-11T15:45:25;27.67;;;14.93;;
9783;SDS011;4931;44.874;-1.092;2023-02-11T15:47:54;26.38;;;15.40;;
9783;SDS011;4931;44.874;-1.092;2023-02-11T15:52:50;28.52;;;15.93;;
9783;SDS011;4931;44.874;-1.092;2023-02-11T15:55:17;26.23;;;15.30;;
9783;SDS011;4931;44.874;-1.092;2023-02-11T15:57:44;29.13;;;15.88;;
9783;SDS011;4931;44.874;-1.092;2023-02-11T16:00:14;29.20;;;15.50;;
9783;SDS011;4931;44.874;-1.092;2023-02-11T16:02:45;26.92;;;15.68;;
9783;SDS011;4931;44.874;-1.092;2023-02-11T16:05:30;26.40;;;15.55;;
9783;SDS011;4931;44.874;-1.092;2023-02-11T16:08:00;32.20;;;16.38;;
9783;SDS011;4931;44.874;-1.092;2023-02-11T16:10:52;29.25;;;15.75;;
9783;SDS011;4931;44.874;-1.092;2023-02-11T16:13:32;29.38;;;16.23;;
9783;SDS011;4931;44.874;-1.092;2023-02-11T16:16:20;31.58;;;17.67;;
9783;SDS011;4931;44.874;-1.092;2023-02-11T16:19:01;38.60;;;21.15;;
9783;SDS011;4931;44.874;-1.092;2023-02-11T16:21:30;39.88;;;20.77;;
9783;SDS011;4931;44.874;-1.092;2023-02-11T16:24:03;30.17;;;17.10;;
9783;SDS011;4931;44.874;-1.092;2023-02-11T16:26:37;24.33;;;15.98;;
9783;SDS011;4931;44.874;-1.092;2023-02-11T16:31:41;26.83;;;15.68;;
9783;SDS011;4931;44.874;-1.092;2023-02-11T16:34:16;29.75;;;16.35;;
9783;SDS011;4931;44.874;-1.092;2023-02-11T16:36:43;26.90;;;16.83;;
9783;SDS011;4931;44.874;-1.092;2023-02-11T16:39:10;25.20;;;14.80;;
9783;SDS011;4931;44.874;-1.092;2023-02-11T16:41:36;24.02;;;14.30;;
9783;SDS011;4931;44.874;-1.092;2023-02-11T16:44:01;23.63;;;13.43;;
9783;SDS011;4931;44.874;-1.092;2023-02-11T16:46:27;22.23;;;13.27;;
9783;SDS011;4931;44.874;-1.092;2023-02-11T16:48:55;24.08;;;14.20;;
9783;SDS011;4931;44.874;-1.092;2023-02-11T16:51:23;30.92;;;15.18;;
9783;SDS011;4931;44.874;-1.092;2023-02-11T16:53:49;24.63;;;13.88;;
9783;SDS011;4931;44.874;-1.092;2023-02-11T16:56:15;28.48;;;14.95;;
9783;SDS011;4931;44.874;-1.092;2023-02-11T16:58:42;23.80;;;13.80;;
9783;SDS011;4931;44.874;-1.092;2023-02-11T17:01:09;34.53;;;16.33;;
9783;SDS011;4931;44.874;-1.092;2023-02-11T17:03:35;47.25;;;24.52;;
9783;SDS011;4931;44.874;-1.092;2023-02-11T17:06:08;36.90;;;18.58;;
9783;SDS011;4931;44.874;-1.092;2023-02-11T17:08:34;62.08;;;29.38;;
9783;SDS011;4931;44.874;-1.092;2023-02-11T17:11:00;111.97;;;45.80;;
9783;SDS011;4931;44.874;-1.092;2023-02-11T17:13:26;113.45;;;45.80;;
9783;SDS011;4931;44.874;-1.092;2023-02-11T17:15:52;50.00;;;23.13;;
9783;SDS011;4931;44.874;-1.092;2023-02-11T17:18:17;33.30;;;16.92;;
9783;SDS011;4931;44.874;-1.092;2023-02-11T17:20:42;85.75;;;36.20;;
9783;SDS011;4931;44.874;-1.092;2023-02-11T17:23:08;95.55;;;40.95;;
9783;SDS011;4931;44.874;-1.092;2023-02-11T17:25:34;107.03;;;44.25;;
9783;SDS011;4931;44.874;-1.092;2023-02-11T17:28:02;70.10;;;30.50;;
9783;SDS011;4931;44.874;-1.092;2023-02-11T17:30:28;59.88;;;27.27;;
9783;SDS011;4931;44.874;-1.092;2023-02-11T17:32:56;58.13;;;26.08;;
9783;SDS011;4931;44.874;-1.092;2023-02-11T17:35:22;59.92;;;28.13;;
9783;SDS011;4931;44.874;-1.092;2023-02-11T17:37:47;59.50;;;28.77;;
9783;SDS011;4931;44.874;-1.092;2023-02-11T17:40:13;45.25;;;23.17;;
9783;SDS011;4931;44.874;-1.092;2023-02-11T17:42:39;60.60;;;25.90;;
9783;SDS011;4931;44.874;-1.092;2023-02-11T17:45:04;42.50;;;22.13;;
9783;SDS011;4931;44.874;-1.092;2023-02-11T17:47:30;41.55;;;21.40;;
9783;SDS011;4931;44.874;-1.092;2023-02-11T17:49:55;40.20;;;19.80;;
9783;SDS011;4931;44.874;-1.092;2023-02-11T17:52:21;39.00;;;19.67;;
9783;SDS011;4931;44.874;-1.092;2023-02-11T17:54:48;48.20;;;21.65;;